Temp: 9.4°C   Baro: 1005.8mb
  Wind: 2.9mph   Dir: SW (217°)
  Rain: 0.2mm (0.0mm/hr)
  Sun: 0W/m2  Humidity: 93%

Historic data

Bath Spa Weather Station Historical Data
Daily Summary for March 20, 2023 Units:  English    Metric   Both
Daily Weekly Monthly Yearly Custom
  High: Low: Average:
Temperature: 53.8 °F 43.8 °F 50.1 °F
Dew Point: 50.9 °F 39.2 °F 47.1 °F
Humidity: 92% 83% 89%
Wind Speed: 9.7mph 0mph 4.2mph
Wind Gust: 14mph - -
Wind- - SSW
Pressure: 30.09 in 29.89 in -
Precipitation: 0.12 in    
Historical Graphs
 
 
Tabular Data for March 20, 2023
Time Temperature Dew Point Pressure Wind Wind Speed Wind Gust Humidity Rainfall Rate (Hourly) solar
00:09 44.8 °F 39.9 °F 30.09 in Calm     83% 0.00 in 0 W/m2
00:14 44.6 °F 39.7 °F 30.09 in Calm     83% 0.00 in 0 W/m2
00:19 44.6 °F 39.7 °F 30.09 in Calm     83% 0.00 in 0 W/m2
00:24 44.4 °F 39.6 °F 30.08 in Calm     83% 0.00 in 0 W/m2
00:29 44.4 °F 39.6 °F 30.08 in Calm     83% 0.00 in 0 W/m2
00:34 44.2 °F 39.4 °F 30.08 in Calm     83% 0.00 in 0 W/m2
00:39 44.2 °F 39.4 °F 30.08 in Calm     83% 0.00 in 0 W/m2
00:44 44.1 °F 39.2 °F 30.08 in Calm     83% 0.00 in 0 W/m2
00:49 43.9 °F 39.2 °F 30.08 in Calm     83.6% 0.00 in 0 W/m2
00:54 43.9 °F 39.4 °F 30.07 in Calm     84% 0.00 in 0 W/m2
00:59 43.8 °F 39.3 °F 30.07 in WSW 0.4 mph 2 mph 84% 0.00 in 0 W/m2
01:04 43.9 °F 39.4 °F 30.07 in WSW 0.4 mph 2 mph 84% 0.00 in 0 W/m2
01:09 44.1 °F 39.7 °F 30.07 in WSW 1.4 mph 3 mph 84.6% 0.00 in 0 W/m2
01:14 44.2 °F 40.1 °F 30.07 in WSW 2.4 mph 5 mph 85% 0.00 in 0 W/m2
01:19 44.5 °F 40.4 °F 30.07 in NW 4 mph 6 mph 85% 0.00 in 0 W/m2
01:24 45 °F 40.6 °F 30.07 in WNW 3.7 mph 7 mph 84.6% 0.00 in 0 W/m2
01:29 45.2 °F 40.7 °F 30.07 in WNW 2.5 mph 6 mph 84% 0.00 in 0 W/m2
01:34 45.3 °F 40.8 °F 30.07 in West 2.4 mph 5 mph 84% 0.00 in 0 W/m2
01:39 45.5 °F 41 °F 30.07 in West 2 mph 4 mph 84% 0.00 in 0 W/m2
01:44 45.7 °F 41.2 °F 30.07 in West 2.6 mph 5 mph 84% 0.00 in 0 W/m2
01:49 45.8 °F 41.3 °F 30.07 in West 2 mph 4 mph 84% 0.00 in 0 W/m2
01:54 45.9 °F 41.4 °F 30.07 in West 2.4 mph 4 mph 84% 0.00 in 0 W/m2
01:59 45.9 °F 41.4 °F 30.06 in West 3.5 mph 8 mph 84% 0.00 in 0 W/m2
02:04 46 °F 41.5 °F 30.06 in WNW 3.3 mph 8 mph 84% 0.00 in 0 W/m2
02:09 46.2 °F 41.7 °F 30.06 in West 2.1 mph 5 mph 84% 0.00 in 0 W/m2
02:14 46.3 °F 41.8 °F 30.06 in WNW 3.4 mph 7 mph 84% 0.00 in 0 W/m2
02:19 46.4 °F 41.9 °F 30.06 in West 3.2 mph 5 mph 84% 0.00 in 0 W/m2
02:24 46.6 °F 42.1 °F 30.06 in West 3.7 mph 7 mph 84% 0.00 in 0 W/m2
02:29 46.8 °F 42.3 °F 30.06 in SW 2.5 mph 7 mph 84% 0.00 in 0 W/m2
02:34 46.8 °F 42.3 °F 30.06 in SW 3 mph 5 mph 84% 0.00 in 0 W/m2
02:39 46.9 °F 42.4 °F 30.05 in SW 2.5 mph 8 mph 84% 0.00 in 0 W/m2
02:44 46.9 °F 42.4 °F 30.05 in WSW 2.8 mph 8 mph 84.2% 0.00 in 0 W/m2
02:49 46.9 °F 42.6 °F 30.05 in SW 3.2 mph 9 mph 85% 0.00 in 0 W/m2
02:54 46.9 °F 42.6 °F 30.05 in SW 1.2 mph 4 mph 85% 0.00 in 0 W/m2
02:59 46.9 °F 42.6 °F 30.04 in SW 2.5 mph 4 mph 85% 0.00 in 0 W/m2
03:04 46.9 °F 42.6 °F 30.04 in SW 2.4 mph 5 mph 85% 0.00 in 0 W/m2
03:09 46.9 °F 42.8 °F 30.04 in SW 2.7 mph 4 mph 85.6% 0.00 in 0 W/m2
03:14 47 °F 43.1 °F 30.04 in SW 2.4 mph 6 mph 86% 0.00 in 0 W/m2
03:19 47.1 °F 43.2 °F 30.04 in SW 1.3 mph 5 mph 86% 0.00 in 0 W/m2
03:24 47.3 °F 43.3 °F 30.04 in SW 0.4 mph 3 mph 86% 0.00 in 0 W/m2
03:29 47.5 °F 43.5 °F 30.04 in SW 1.3 mph 5 mph 86% 0.00 in 0 W/m2
03:34 47.5 °F 43.7 °F 30.04 in SW 1.6 mph 3 mph 86.4% 0.00 in 0 W/m2
03:39 47.6 °F 44 °F 30.04 in SW 2 mph 5 mph 87% 0.00 in 0 W/m2
03:44 47.7 °F 44.1 °F 30.04 in WSW 2.7 mph 8 mph 87% 0.00 in 0 W/m2
03:49 47.7 °F 44.1 °F 30.03 in WSW 4.5 mph 8 mph 87% 0.00 in 0 W/m2
03:53 47.8 °F 44.3 °F 30.03 in SW 4 mph 8 mph 87.8% 0.00 in 0 W/m2
03:59 47.8 °F 44.4 °F 30.03 in SW 4.1 mph 10 mph 88% 0.00 in 0 W/m2
04:04 47.8 °F 44.4 °F 30.03 in SW 4.5 mph 10 mph 88% 0.00 in 0 W/m2
04:09 47.9 °F 44.5 °F 30.03 in SSW 5.8 mph 11 mph 88% 0.00 in 0 W/m2
04:14 48 °F 44.9 °F 30.03 in SSW 8 mph 13 mph 88.8% 0.00 in 0 W/m2
04:19 48 °F 45 °F 30.03 in SW 9.2 mph 12 mph 89% 0.00 in 0 W/m2
04:24 48 °F 45 °F 30.03 in SSW 6.6 mph 12 mph 89% 0.00 in 0 W/m2
04:29 48 °F 45 °F 30.03 in SSW 5.6 mph 11 mph 89% 0.00 in 0 W/m2
04:34 48 °F 45 °F 30.02 in SSW 4.9 mph 11 mph 89% 0.00 in 0 W/m2
04:39 48.2 °F 45.1 °F 30.02 in SW 5.4 mph 10 mph 89% 0.00 in 0 W/m2
04:44 48.3 °F 45.4 °F 30.02 in SW 6.2 mph 14 mph 90% 0.00 in 0 W/m2
04:49 48.4 °F 45.5 °F 30.02 in SSW 6 mph 14 mph 90% 0.00 in 0 W/m2
04:53 48.6 °F 45.7 °F 30.02 in SW 4.2 mph 10 mph 90% 0.00 in 0 W/m2
04:59 48.6 °F 45.7 °F 30.02 in SSW 5.4 mph 11 mph 90% 0.00 in 0 W/m2
05:04 48.6 °F 45.7 °F 30.02 in SW 5.5 mph 11 mph 90% 0.00 in 0 W/m2
05:09 48.6 °F 45.7 °F 30.02 in SW 3.8 mph 9 mph 90% 0.00 in 0 W/m2
05:14 48.7 °F 45.9 °F 30.02 in SSW 5.6 mph 9 mph 90% 0.00 in 0 W/m2
05:19 48.7 °F 46 °F 30.02 in SW 4 mph 8 mph 90.2% 0.00 in 0 W/m2
05:24 48.7 °F 46.2 °F 30.02 in SW 3.5 mph 8 mph 91% 0.00 in 0 W/m2
05:29 48.9 °F 46.4 °F 30.02 in SSW 4.1 mph 9 mph 91% 0.00 in 0 W/m2
05:34 48.9 °F 46.4 °F 30.02 in SSW 4.4 mph 9 mph 91% 0.00 in 0 W/m2
05:39 49 °F 46.5 °F 30.02 in SSW 3.6 mph 7 mph 91% 0.00 in 0 W/m2
05:44 49.1 °F 46.6 °F 30.02 in SW 5.2 mph 11 mph 91% 0.00 in 0 W/m2
05:49 49.2 °F 46.7 °F 30.02 in SW 7.2 mph 9 mph 91% 0.00 in 0 W/m2
05:54 49.3 °F 46.8 °F 30.01 in SW 4.5 mph 8 mph 91% 0.00 in 0 W/m2
05:59 49.4 °F 46.8 °F 30.01 in SW 5.4 mph 12 mph 91% 0.00 in 0 W/m2
06:04 49.5 °F 46.9 °F 30.01 in SSW 7.2 mph 12 mph 91% 0.00 in 0 W/m2
06:09 49.5 °F 46.9 °F 30.01 in SW 4.1 mph 11 mph 91% 0.00 in 0 W/m2
06:14 49.6 °F 47.1 °F 30.01 in SW 3.6 mph 9 mph 91% 0.00 in 0 W/m2
06:19 49.6 °F 47.1 °F 30.01 in SSW 5.8 mph 11 mph 91% 0.00 in 0 W/m2
06:24 49.6 °F 47.2 °F 30.01 in SW 5.8 mph 11 mph 91.2% 0.00 in 0 W/m2
06:29 49.8 °F 47.6 °F 30.02 in SW 4.7 mph 10 mph 91.8% 0.00 in 0 W/m2
06:34 49.8 °F 47.6 °F 30.02 in SW 4.5 mph 7 mph 91.8% 0.00 in 5 W/m2
06:39 49.8 °F 47.4 °F 30.02 in WSW 2 mph 8 mph 91.2% 0.00 in 5 W/m2
06:44 49.8 °F 47.4 °F 30.02 in SW 4.7 mph 8 mph 91.2% 0.00 in 7 W/m2
06:49 50 °F 47.5 °F 30.02 in SSW 4.6 mph 8 mph 91% 0.00 in 11 W/m2
06:54 50.2 °F 47.7 °F 30.02 in SSW 4.5 mph 12 mph 91% 0.00 in 12 W/m2
06:59 50.2 °F 47.7 °F 30.02 in SSW 3.4 mph 7 mph 91% 0.00 in 18 W/m2
07:04 50.2 °F 47.7 °F 30.02 in SW 4 mph 8 mph 91% 0.00 in 25 W/m2
07:09 50.4 °F 47.8 °F 30.02 in SSW 4.4 mph 8 mph 91% 0.00 in 30 W/m2
07:14 50.4 °F 47.8 °F 30.02 in SW 4.2 mph 8 mph 91% 0.00 in 28 W/m2
07:19 50.5 °F 47.9 °F 30.02 in SW 2.7 mph 6 mph 91% 0.00 in 28 W/m2
07:24 50.5 °F 48 °F 30.02 in SW 3.6 mph 6 mph 91% 0.00 in 26 W/m2
07:29 50.5 °F 48 °F 30.02 in SW 3.9 mph 9 mph 91% 0.00 in 40 W/m2
07:34 50.7 °F 48.2 °F 30.02 in SW 3.8 mph 11 mph 91% 0.00 in 44 W/m2
07:39 50.7 °F 48.2 °F 30.02 in SW 3 mph 7 mph 91% 0.00 in 35 W/m2
07:44 50.9 °F 48.4 °F 30.02 in SSW 5.3 mph 11 mph 91% 0.00 in 46 W/m2
07:49 51 °F 48.5 °F 30.02 in SW 5.9 mph 10 mph 91% 0.00 in 65 W/m2
07:54 51.1 °F 48.6 °F 30.02 in SW 5.8 mph 10 mph 91% 0.00 in 86 W/m2
07:59 51.1 °F 48.6 °F 30.02 in SW 5.2 mph 8 mph 91% 0.00 in 90 W/m2
08:04 51.3 °F 48.7 °F 30.02 in SW 3.9 mph 11 mph 91% 0.00 in 77 W/m2
08:09 51.3 °F 48.7 °F 30.02 in SW 5.6 mph 9 mph 91% 0.00 in 65 W/m2
08:14 51.4 °F 48.9 °F 30.02 in SSW 6.4 mph 11 mph 91% 0.00 in 69 W/m2
08:19 51.4 °F 48.6 °F 30.02 in SW 3.7 mph 7 mph 90% 0.00 in 70 W/m2
08:24 51.4 °F 48.7 °F 30.03 in SW 5.3 mph 12 mph 90.2% 0.00 in 54 W/m2
08:29 51.5 °F 48.7 °F 30.02 in SSW 5.8 mph 11 mph 90% 0.00 in 54 W/m2
08:34 51.6 °F 48.7 °F 30.03 in SSW 2.1 mph 10 mph 90% 0.00 in 54 W/m2
08:39 51.6 °F 48.7 °F 30.03 in SSW 3.5 mph 9 mph 90% 0.00 in 72 W/m2
08:44 51.6 °F 48.7 °F 30.02 in SSW 4.3 mph 9 mph 90% 0.00 in 79 W/m2
08:49 51.7 °F 48.8 °F 30.03 in SW 2.8 mph 7 mph 90% 0.00 in 76 W/m2
08:54 51.8 °F 49 °F 30.03 in SW 3.7 mph 8 mph 90% 0.00 in 77 W/m2
08:59 52 °F 49.1 °F 30.03 in SSW 6.2 mph 11 mph 90% 0.00 in 76 W/m2
09:04 52 °F 49.1 °F 30.03 in SW 5.4 mph 10 mph 90% 0.00 in 97 W/m2
09:09 52 °F 49.1 °F 30.03 in SW 5.8 mph 9 mph 90% 0.00 in 102 W/m2
09:14 52 °F 49.1 °F 30.03 in SSW 4.9 mph 9 mph 90% 0.00 in 130 W/m2
09:19 52.2 °F 49.3 °F 30.03 in WSW 5.3 mph 10 mph 90% 0.00 in 120 W/m2
09:24 52.2 °F 49.3 °F 30.03 in SW 7.6 mph 12 mph 90% 0.00 in 90 W/m2
09:29 52.2 °F 49.3 °F 30.03 in SSW 4 mph 10 mph 90% 0.00 in 105 W/m2
09:34 52.2 °F 49.3 °F 30.03 in SW 6 mph 11 mph 90% 0.00 in 111 W/m2
09:39 52.2 °F 49.4 °F 30.03 in SW 6.5 mph 13 mph 90% 0.00 in 104 W/m2
09:44 52.3 °F 49.5 °F 30.03 in SW 6.8 mph 10 mph 90% 0.00 in 120 W/m2
09:49 52.4 °F 49.5 °F 30.03 in SW 5.3 mph 10 mph 89.8% 0.00 in 125 W/m2
09:54 52.5 °F 49.5 °F 30.03 in SW 5.4 mph 11 mph 89% 0.00 in 125 W/m2
09:59 52.6 °F 49.5 °F 30.03 in SSW 3.2 mph 11 mph 89.4% 0.00 in 88 W/m2
10:04 52.7 °F 49.5 °F 30.03 in SSW 5.2 mph 12 mph 89% 0.00 in 91 W/m2
10:09 52.6 °F 49.5 °F 30.03 in SW 9.2 mph 13 mph 89% 0.00 in 88 W/m2
10:14 52.5 °F 49.5 °F 30.03 in SW 7 mph 11 mph 89% 0.00 in 84 W/m2
10:19 52.5 °F 49.5 °F 30.03 in SW 5.6 mph 12 mph 89% 0.00 in 81 W/m2
10:24 52.5 °F 49.5 °F 30.03 in SW 6 mph 9 mph 89% 0.00 in 81 W/m2
10:29 52.5 °F 49.5 °F 30.04 in SW 6.7 mph 13 mph 89% 0.00 in 88 W/m2
10:34 52.5 °F 49.5 °F 30.03 in SW 4.7 mph 10 mph 89% 0.00 in 125 W/m2
10:39 52.5 °F 49.5 °F 30.03 in SW 7.6 mph 12 mph 89% 0.00 in 130 W/m2
10:44 52.5 °F 49.5 °F 30.04 in SW 5.4 mph 12 mph 89% 0.00 in 121 W/m2
10:49 52.7 °F 49.5 °F 30.03 in SW 5.4 mph 8 mph 89% 0.00 in 121 W/m2
10:54 52.5 °F 49.5 °F 30.03 in SW 5.3 mph 9 mph 89% 0.00 in 95 W/m2
10:59 52.6 °F 49.5 °F 30.03 in SW 6.6 mph 11 mph 89% 0.00 in 127 W/m2
11:04 52.5 °F 49.5 °F 30.03 in SW 6.9 mph 12 mph 89% 0.00 in 142 W/m2
11:09 52.7 °F 49.5 °F 30.03 in SW 4.6 mph 10 mph 89% 0.00 in 146 W/m2
11:14 52.9 °F 49.6 °F 30.03 in SW 4.3 mph 8 mph 89% 0.00 in 146 W/m2
11:19 53.1 °F 49.8 °F 30.03 in SSW 3.6 mph 8 mph 89% 0.00 in 190 W/m2
11:24 53.1 °F 49.9 °F 30.03 in SW 4.5 mph 11 mph 89% 0.00 in 190 W/m2
11:29 53.1 °F 49.8 °F 30.03 in SSW 8.2 mph 13 mph 89% 0.00 in 163 W/m2
11:34 53 °F 49.7 °F 30.03 in SSW 6 mph 11 mph 89% 0.00 in 181 W/m2
11:39 52.8 °F 49.6 °F 30.03 in SW 9.7 mph 13 mph 89% 0.00 in 218 W/m2
11:44 52.8 °F 49.9 °F 30.03 in SW 5.2 mph 13 mph 89.8% 0.00 in 285 W/m2
11:49 53.1 °F 50.2 °F 30.03 in SW 4.5 mph 11 mph 90% 0.00 in 271 W/m2
11:54 53.1 °F 50.3 °F 30.03 in SSW 4.1 mph 12 mph 90% 0.00 in 186 W/m2
11:59 53.1 °F 50.2 °F 30.03 in SW 5.5 mph 12 mph 90% 0.00 in 192 W/m2
12:04 53 °F 50.1 °F 30.02 in SSW 8.2 mph 14 mph 90% 0.00 in 206 W/m2
12:09 52.9 °F 50 °F 30.02 in SW 6.1 mph 13 mph 90% 0.00 in 207 W/m2
12:14 53.1 °F 50.2 °F 30.02 in SSW 5.2 mph 12 mph 90% 0.00 in 211 W/m2
12:19 53.1 °F 50.2 °F 30.02 in SW 6.2 mph 12 mph 90% 0.00 in 218 W/m2
12:24 53.2 °F 50.2 °F 30.02 in SW 7.2 mph 13 mph 89.4% 0.00 in 241 W/m2
12:29 53.5 °F 50.3 °F 30.02 in SW 3.7 mph 9 mph 89% 0.00 in 232 W/m2
12:34 53.7 °F 50.5 °F 30.02 in SW 3.9 mph 8 mph 89% 0.00 in 230 W/m2
12:39 53.5 °F 50.3 °F 30.02 in SW 5.7 mph 11 mph 89% 0.00 in 214 W/m2
12:44 53.4 °F 50.2 °F 30.01 in SW 4 mph 11 mph 89% 0.00 in 214 W/m2
12:49 53.3 °F 50.1 °F 30.01 in SSW 5.7 mph 11 mph 89% 0.00 in 214 W/m2
12:54 53.3 °F 50.2 °F 30.01 in SSW 4.8 mph 9 mph 89.2% 0.00 in 186 W/m2
12:59 53.2 °F 50 °F 30.01 in SSW 6.1 mph 10 mph 89% 0.00 in 171 W/m2
13:04 53.1 °F 50 °F 30.01 in SW 6.4 mph 12 mph 89.6% 0.00 in 195 W/m2
13:09 53.1 °F 50.3 °F 30.01 in SW 4.6 mph 12 mph 90% 0.00 in 225 W/m2
13:14 53.2 °F 50.4 °F 30.01 in SW 4.9 mph 10 mph 90% 0.00 in 218 W/m2
13:19 53.4 °F 50.5 °F 30.01 in SW 4 mph 8 mph 90% 0.00 in 179 W/m2
13:24 53.4 °F 50.4 °F 30.01 in SW 6.2 mph 14 mph 89.8% 0.00 in 158 W/m2
13:29 53.4 °F 50.2 °F 30.01 in SW 6.2 mph 14 mph 89.2% 0.00 in 163 W/m2
13:34 53.4 °F 50.5 °F 30.01 in SSW 2.9 mph 8 mph 90% 0.00 in 193 W/m2
13:39 53.6 °F 50.7 °F 30.00 in SW 2.9 mph 6 mph 90% 0.00 in 199 W/m2
13:44 53.8 °F 50.9 °F 30.00 in South 3.6 mph 6 mph 90% 0.00 in 167 W/m2
13:49 53.6 °F 50.7 °F 30.00 in SSW 3.3 mph 7 mph 90% 0.00 in 171 W/m2
13:54 53.8 °F 50.9 °F 30.00 in South 3 mph 5 mph 90% 0.00 in 146 W/m2
13:59 53.7 °F 50.8 °F 30.00 in South 4.4 mph 8 mph 90% 0.00 in 153 W/m2
14:04 53.5 °F 50.6 °F 30.00 in SSW 5.3 mph 11 mph 90% 0.00 in 155 W/m2
14:09 53.4 °F 50.5 °F 30.00 in SW 4.8 mph 9 mph 90% 0.00 in 125 W/m2
14:14 53.7 °F 50.8 °F 30.00 in SSW 3.2 mph 8 mph 90% 0.00 in 132 W/m2
14:19 53.7 °F 50.8 °F 30.00 in SW 4.6 mph 8 mph 90% 0.00 in 123 W/m2
14:24 53.4 °F 50.5 °F 30.00 in SSW 6.6 mph 11 mph 90% 0.00 in 114 W/m2
14:29 53.2 °F 50.3 °F 29.99 in SSW 4.2 mph 11 mph 90% 0.00 in 155 W/m2
14:34 53.2 °F 50.4 °F 29.99 in SSW 5 mph 8 mph 90% 0.00 in 141 W/m2
14:39 53.2 °F 50.4 °F 29.99 in SSW 2.9 mph 9 mph 90% 0.00 in 76 W/m2
14:44 53.3 °F 50.5 °F 29.99 in SSW 3.6 mph 7 mph 90% 0.00 in 81 W/m2
14:49 53.4 °F 50.5 °F 29.99 in South 3.7 mph 8 mph 90% 0.00 in 100 W/m2
14:54 53.2 °F 50.4 °F 29.99 in SSW 6.8 mph 12 mph 90% 0.01 in 97 W/m2
14:59 53 °F 50.1 °F 29.99 in SSW 4.9 mph 11 mph 90% 0.01 in 95 W/m2
15:04 52.7 °F 49.8 °F 29.99 in South 4.6 mph 10 mph 90% 0.01 in 60 W/m2
15:09 52.5 °F 49.6 °F 29.99 in SSW 2.6 mph 6 mph 90% 0.01 in 56 W/m2
15:14 52.5 °F 49.8 °F 29.99 in South 4.5 mph 11 mph 90.4% 0.01 in 46 W/m2
15:19 52.3 °F 49.8 °F 29.99 in SSW 4.1 mph 11 mph 91% 0.01 in 42 W/m2
15:24 52.3 °F 49.8 °F 29.99 in South 2.9 mph 7 mph 91% 0.01 in 42 W/m2
15:29 52.3 °F 49.8 °F 29.98 in SSW 3.3 mph 8 mph 91% 0.01 in 37 W/m2
15:34 52.2 °F 49.6 °F 29.98 in SSW 6.8 mph 11 mph 91% 0.01 in 33 W/m2
15:39 52 °F 49.5 °F 29.98 in South 8.6 mph 12 mph 91% 0.01 in 35 W/m2
15:44 51.8 °F 49.3 °F 29.98 in SSW 7.4 mph 12 mph 91% 0.01 in 26 W/m2
15:49 51.6 °F 49.1 °F 29.98 in SW 3.7 mph 12 mph 91% 0.01 in 23 W/m2
15:54 51.6 °F 49.1 °F 29.98 in South 5.2 mph 12 mph 91% 0.01 in 25 W/m2
15:59 51.5 °F 49 °F 29.99 in SSW 5 mph 11 mph 91% 0.01 in 30 W/m2
16:04 51.4 °F 49.2 °F 29.98 in South 4 mph 9 mph 92% 0.01 in 33 W/m2
16:09 51.3 °F 49.1 °F 29.98 in South 1.7 mph 9 mph 92% 0.02 in 33 W/m2
16:14 51.3 °F 49.1 °F 29.98 in SSW 5 mph 10 mph 92% 0.02 in 30 W/m2
16:19 51.3 °F 49.1 °F 29.98 in SSW 1.3 mph 7 mph 92% 0.02 in 23 W/m2
16:24 51.3 °F 49.1 °F 29.98 in SSW 4.4 mph 9 mph 92% 0.02 in 28 W/m2
16:29 51.2 °F 49 °F 29.98 in SSW 4.2 mph 10 mph 92% 0.02 in 33 W/m2
16:34 51.1 °F 48.9 °F 29.97 in SSW 3.5 mph 10 mph 92% 0.02 in 47 W/m2
16:39 51.2 °F 49 °F 29.97 in South 3.2 mph 12 mph 92% 0.02 in 53 W/m2
16:44 51.1 °F 48.9 °F 29.97 in SSW 3.9 mph 12 mph 92% 0.03 in 53 W/m2
16:49 51 °F 48.8 °F 29.97 in SSW 5 mph 11 mph 92% 0.03 in 40 W/m2
16:54 51.1 °F 48.9 °F 29.97 in SW 4 mph 8 mph 92% 0.03 in 30 W/m2
16:59 51.1 °F 48.9 °F 29.97 in SSW 2.5 mph 6 mph 92% 0.03 in 23 W/m2
17:04 50.9 °F 48.7 °F 29.97 in SSE 3.6 mph 8 mph 92% 0.02 in 19 W/m2
17:09 50.7 °F 48.6 °F 29.97 in SSW 5.3 mph 12 mph 92% 0.02 in 21 W/m2
17:14 50.7 °F 48.6 °F 29.97 in SSW 7 mph 11 mph 92% 0.02 in 19 W/m2
17:19 50.7 °F 48.6 °F 29.97 in SW 5.6 mph 13 mph 92% 0.02 in 16 W/m2
17:24 50.7 °F 48.6 °F 29.97 in SW 5.5 mph 9 mph 92% 0.01 in 18 W/m2
17:29 50.7 °F 48.6 °F 29.97 in South 6.2 mph 11 mph 92% 0.01 in 18 W/m2
17:34 50.7 °F 48.6 °F 29.97 in SW 4.3 mph 13 mph 92% 0.01 in 12 W/m2
17:39 50.7 °F 48.6 °F 29.97 in SW 5.6 mph 13 mph 92% 0.01 in 7 W/m2
17:44 50.6 °F 48.5 °F 29.97 in SW 7 mph 13 mph 92% 0.01 in 9 W/m2
17:49 50.5 °F 48.4 °F 29.97 in SW 3.9 mph 8 mph 92% 0.02 in 12 W/m2
17:54 50.5 °F 48.3 °F 29.97 in South 3.2 mph 9 mph 92% 0.02 in 7 W/m2
17:59 50.4 °F 48.2 °F 29.97 in SSW 5 mph 13 mph 92% 0.02 in 5 W/m2
18:04 50.4 °F 48.2 °F 29.97 in SW 4.5 mph 8 mph 92% 0.02 in 0 W/m2
18:09 50.4 °F 48.2 °F 29.97 in SW 5 mph 11 mph 92% 0.02 in 0 W/m2
18:14 50.4 °F 48.2 °F 29.97 in SSW 7.2 mph 12 mph 92% 0.02 in 0 W/m2
18:19 50.4 °F 48.2 °F 29.97 in SW 5.8 mph 14 mph 92% 0.02 in 0 W/m2
18:24 50.4 °F 47.9 °F 29.97 in SSW 4 mph 14 mph 91.2% 0.02 in 0 W/m2
18:29 50.4 °F 47.8 °F 29.97 in SW 6.8 mph 10 mph 91% 0.02 in 0 W/m2
18:34 50.4 °F 47.8 °F 29.97 in SSW 5.5 mph 13 mph 91% 0.02 in 0 W/m2
18:39 50.4 °F 47.8 °F 29.97 in South 6.1 mph 13 mph 91% 0.02 in 0 W/m2
18:44 50.4 °F 47.8 °F 29.97 in SSW 7.2 mph 14 mph 91% 0.02 in 0 W/m2
18:49 50.4 °F 47.8 °F 29.98 in South 4.9 mph 11 mph 91% 0.01 in 0 W/m2
18:54 50.4 °F 47.8 °F 29.98 in SSW 4.5 mph 7 mph 91% 0.00 in 0 W/m2
18:59 50.3 °F 47.8 °F 29.97 in SSW 3.6 mph 8 mph 91% 0.01 in 0 W/m2
19:04 50.2 °F 47.7 °F 29.97 in SSW 3.1 mph 8 mph 91% 0.01 in 0 W/m2
19:09 50.2 °F 47.7 °F 29.97 in SSW 2.6 mph 6 mph 91% 0.01 in 0 W/m2
19:14 50.2 °F 47.7 °F 29.97 in SSW 2 mph 5 mph 91% 0.01 in 0 W/m2
19:19 50.1 °F 47.6 °F 29.97 in SSW 4.6 mph 9 mph 91% 0.02 in 0 W/m2
19:24 50 °F 47.5 °F 29.97 in South 2.9 mph 9 mph 91% 0.02 in 0 W/m2
19:29 50 °F 47.5 °F 29.97 in SSW 3.1 mph 6 mph 91% 0.02 in 0 W/m2
19:34 49.8 °F 47.3 °F 29.97 in SSW 3 mph 6 mph 91% 0.02 in 0 W/m2
19:39 49.8 °F 47.3 °F 29.96 in South 3 mph 7 mph 91% 0.02 in 0 W/m2
19:44 50 °F 47.5 °F 29.96 in South 2.3 mph 6 mph 91% 0.03 in 0 W/m2
19:49 49.8 °F 47.3 °F 29.96 in South 3.6 mph 7 mph 91% 0.03 in 0 W/m2
19:54 49.8 °F 47.3 °F 29.97 in South 2.5 mph 7 mph 91% 0.03 in 0 W/m2
19:59 49.8 °F 47.3 °F 29.96 in South 3.3 mph 7 mph 91% 0.03 in 0 W/m2
20:04 49.8 °F 47.3 °F 29.96 in South 5.2 mph 10 mph 91% 0.02 in 0 W/m2
20:09 49.8 °F 47.3 °F 29.96 in South 4 mph 7 mph 91% 0.02 in 0 W/m2
20:14 49.8 °F 47.3 °F 29.96 in South 3.3 mph 6 mph 91% 0.02 in 0 W/m2
20:19 49.8 °F 47.3 °F 29.96 in South 2.5 mph 6 mph 91% 0.03 in 0 W/m2
20:24 49.7 °F 47.2 °F 29.96 in South 3.7 mph 11 mph 91% 0.02 in 0 W/m2
20:29 49.6 °F 47.1 °F 29.96 in South 2.9 mph 11 mph 91% 0.02 in 0 W/m2
20:34 49.6 °F 47.1 °F 29.96 in South 2.4 mph 5 mph 91% 0.02 in 0 W/m2
20:39 49.6 °F 47.1 °F 29.95 in South 2.7 mph 7 mph 91% 0.02 in 0 W/m2
20:44 49.6 °F 47.1 °F 29.95 in SSE 3.3 mph 7 mph 91% 0.02 in 0 W/m2
20:49 49.6 °F 47.1 °F 29.95 in South 2.1 mph 5 mph 91% 0.01 in 0 W/m2
20:54 49.6 °F 47.1 °F 29.95 in SSW 2.7 mph 6 mph 91% 0.01 in 0 W/m2
20:59 49.6 °F 47.1 °F 29.95 in SSW 3.3 mph 7 mph 91% 0.01 in 0 W/m2
21:04 49.6 °F 47 °F 29.95 in South 3.2 mph 7 mph 90.6% 0.01 in 0 W/m2
21:09 49.6 °F 46.9 °F 29.95 in SSW 3.9 mph 7 mph 90.4% 0.01 in 0 W/m2
21:14 49.6 °F 46.8 °F 29.94 in South 4.6 mph 10 mph 90% 0.01 in 0 W/m2
21:19 49.6 °F 46.8 °F 29.94 in South 3.2 mph 10 mph 90% 0.01 in 0 W/m2
21:24 49.6 °F 46.8 °F 29.94 in South 2.5 mph 6 mph 90% 0.00 in 0 W/m2
21:29 49.6 °F 46.8 °F 29.94 in South 4.3 mph 13 mph 90% 0.00 in 0 W/m2
21:34 49.8 °F 46.9 °F 29.93 in South 3.7 mph 7 mph 90% 0.00 in 0 W/m2
21:39 49.8 °F 46.9 °F 29.93 in SSE 2.5 mph 8 mph 89.8% 0.00 in 0 W/m2
21:44 49.8 °F 46.9 °F 29.93 in SSE 2 mph 7 mph 89.8% 0.00 in 0 W/m2
21:49 49.8 °F 46.8 °F 29.93 in South 2.6 mph 6 mph 89% 0.00 in 0 W/m2
21:54 49.8 °F 46.8 °F 29.93 in South 1.2 mph 6 mph 89% 0.00 in 0 W/m2
21:59 49.6 °F 46.6 °F 29.93 in SSE 6.5 mph 13 mph 89% 0.00 in 0 W/m2
22:04 49.8 °F 46.8 °F 29.93 in South 3.3 mph 13 mph 89% 0.00 in 0 W/m2
22:09 49.7 °F 46.7 °F 29.93 in SSW 2.6 mph 9 mph 89% 0.00 in 0 W/m2
22:14 49.6 °F 46.6 °F 29.92 in South 4.1 mph 8 mph 89% 0.01 in 0 W/m2
22:19 49.6 °F 46.6 °F 29.92 in South 4.6 mph 9 mph 89% 0.01 in 0 W/m2
22:24 49.6 °F 46.6 °F 29.92 in South 4.8 mph 11 mph 89% 0.01 in 0 W/m2
22:29 49.5 °F 46.4 °F 29.92 in SSE 4.2 mph 9 mph 89% 0.01 in 0 W/m2
22:34 49.5 °F 46.4 °F 29.92 in South 3.6 mph 10 mph 89% 0.01 in 0 W/m2
22:39 49.5 °F 46.4 °F 29.92 in South 2.7 mph 8 mph 89% 0.01 in 0 W/m2
22:44 49.5 °F 46.4 °F 29.91 in South 4 mph 8 mph 89% 0.01 in 0 W/m2
22:49 49.5 °F 46.4 °F 29.91 in SSW 3.6 mph 10 mph 89% 0.02 in 0 W/m2
22:54 49.4 °F 46.3 °F 29.91 in SSW 3.3 mph 9 mph 89% 0.02 in 0 W/m2
22:59 49.3 °F 46.4 °F 29.91 in South 2 mph 5 mph 89.8% 0.02 in 0 W/m2
23:04 49.3 °F 46.4 °F 29.91 in SSW 5.8 mph 13 mph 90% 0.02 in 0 W/m2
23:09 49.3 °F 46.4 °F 29.91 in SSW 4.8 mph 14 mph 90% 0.02 in 0 W/m2
23:14 49.4 °F 46.5 °F 29.91 in SSW 4.1 mph 8 mph 90% 0.02 in 0 W/m2
23:19 49.3 °F 46.4 °F 29.91 in South 2.9 mph 8 mph 90% 0.02 in 0 W/m2
23:24 49.3 °F 46.4 °F 29.91 in South 5.2 mph 11 mph 90% 0.02 in 0 W/m2
23:29 49.3 °F 46.4 °F 29.90 in SSW 3.4 mph 9 mph 90% 0.02 in 0 W/m2
23:34 49.3 °F 46.4 °F 29.90 in South 4.7 mph 11 mph 90% 0.02 in 0 W/m2
23:39 49.3 °F 46.4 °F 29.90 in South 4.4 mph 6 mph 90% 0.02 in 0 W/m2
23:44 49.3 °F 46.4 °F 29.90 in SSE 5.1 mph 13 mph 90% 0.02 in 0 W/m2
23:48 49.3 °F 46.4 °F 29.89 in South 5 mph 13 mph 90% 0.01 in 0 W/m2
23:54 49.3 °F 46.4 °F 29.89 in South 4.4 mph 11 mph 90% 0.01 in 0 W/m2
23:59 49.3 °F 46.4 °F 29.89 in South 7 mph 11 mph 90% 0.01 in 0 W/m2
Bath Spa Weather
Compliments of Weather Underground - 2 mb